Time;durP1;ratioP1;P1;durP2;ratioP2;P2;SDS_P1;SDS_P2;PMS_P1;PMS_P2;Temp;Humidity;BMP_temperature;BMP_pressure;BME280_temperature;BME280_humidity;BME280_pressure;Samples;Min_cycle;Max_cycle;Signal;HPM_P1;HPM_P2
2022/12/21 00:02:26;;;;;;;2.20;2.10;;;;;;;2.41;69.19;99981.69;4470908;32;34576;-71
2022/12/21 00:04:54;;;;;;;2.92;2.72;;;;;;;2.12;69.65;99984.97;4471441;32;33340;-71
2022/12/21 00:07:22;;;;;;;0.77;0.77;;;;;;;2.25;69.57;99982.03;4471327;32;34675;-71
2022/12/21 00:09:50;;;;;;;0.90;0.90;;;;;;;1.90;69.39;99982.56;4471303;32;35841;-71
2022/12/21 00:12:18;;;;;;;0.98;0.98;;;;;;;2.05;70.17;99982.22;4471195;32;34321;-71
2022/12/21 00:14:46;;;;;;;3.58;3.35;;;;;;;2.27;69.80;99978.66;4471430;32;33628;-71
2022/12/21 00:17:14;;;;;;;2.20;2.05;;;;;;;2.27;68.71;99977.78;4471263;32;33832;-71
2022/12/21 00:19:43;;;;;;;1.98;1.87;;;;;;;2.27;69.47;99970.09;4457331;32;35067;-71
2022/12/21 00:22:11;;;;;;;1.10;1.10;;;;;;;2.14;69.67;99973.09;4457355;32;34551;-71
2022/12/21 00:24:39;;;;;;;4.93;1.67;;;;;;;2.28;68.46;99974.41;4471214;32;33415;-71
2022/12/21 00:27:07;;;;;;;6.22;2.05;;;;;;;2.12;69.57;99980.75;4471268;32;34739;-71
2022/12/21 00:29:35;;;;;;;0.95;0.95;;;;;;;1.77;70.57;99980.41;4471255;32;35912;-71
2022/12/21 00:32:03;;;;;;;5.80;3.85;;;;;;;2.03;69.86;99978.75;4471184;32;34384;-71
2022/12/21 00:34:31;;;;;;;2.17;1.98;;;;;;;2.50;68.42;99975.09;4471141;32;33328;-71
2022/12/21 00:37:01;;;;;;;1.42;1.33;;;;;;;2.09;69.43;99971.22;4471085;32;33756;-71
2022/12/21 00:39:28;;;;;;;1.70;1.60;;;;;;;2.28;68.99;99970.13;4471288;32;35133;-71
2022/12/21 00:41:57;;;;;;;2.45;2.25;;;;;;;2.14;69.27;99968.81;4471456;32;34510;-71
2022/12/21 00:44:24;;;;;;;10.43;2.25;;;;;;;2.35;68.71;99968.66;4471395;32;34204;-71
2022/12/21 00:46:52;;;;;;;11.40;6.25;;;;;;;2.36;68.34;99962.66;4471021;32;34586;-71
2022/12/21 00:49:20;;;;;;;3.35;3.05;;;;;;;2.12;69.00;99967.00;4471087;32;35099;-70
2022/12/21 00:51:53;;;;;;;1.67;1.58;;;;;;;2.16;69.46;99968.88;4471120;32;34497;-71
2022/12/21 00:54:21;;;;;;;2.15;2.05;;;;;;;1.96;69.58;99965.63;4471031;32;33436;-70
2022/12/21 00:56:49;;;;;;;2.30;2.08;;;;;;;2.32;68.77;99971.13;4471306;32;34755;-71
2022/12/21 00:59:17;;;;;;;1.75;1.65;;;;;;;2.31;68.22;99973.62;4471162;32;35987;-71
2022/12/21 01:01:45;;;;;;;2.70;2.55;;;;;;;2.36;67.98;99972.09;4470892;32;34377;-71
2022/12/21 01:04:13;;;;;;;4.43;2.05;;;;;;;2.57;67.62;99959.03;4471095;32;34462;-71
2022/12/21 01:06:41;;;;;;;1.70;1.60;;;;;;;2.44;67.79;99961.22;4470944;32;34757;-71
2022/12/21 01:09:09;;;;;;;3.40;2.00;;;;;;;2.27;68.06;99964.94;4456940;32;35875;-71
2022/12/21 01:11:37;;;;;;;1.80;1.70;;;;;;;2.36;67.70;99962.66;4470936;32;34438;-71
2022/12/21 01:14:05;;;;;;;1.10;1.10;;;;;;;1.92;69.12;99961.22;4470414;32;34173;-71
2022/12/21 01:16:33;;;;;;;1.10;1.10;;;;;;;1.81;70.20;99971.13;4470895;32;34816;-71
2022/12/21 01:19:05;;;;;;;2.55;2.35;;;;;;;2.24;68.65;99963.16;4470836;32;34904;-71
2022/12/21 01:21:32;;;;;;;2.67;2.10;;;;;;;2.09;68.62;99955.81;4457052;32;34550;-71
2022/12/21 01:24:03;;;;;;;0.70;0.70;;;;;;;2.11;68.78;99955.87;4457111;32;34230;-71
2022/12/21 01:26:31;;;;;;;1.02;1.02;;;;;;;2.41;67.83;99945.69;4470464;32;33987;-71
2022/12/21 01:28:58;;;;;;;3.50;3.25;;;;;;;2.27;67.64;99941.81;4470751;32;34998;-71
2022/12/21 01:31:27;;;;;;;1.35;1.35;;;;;;;1.60;70.18;99936.16;4470729;32;34202;-71
2022/12/21 01:33:55;;;;;;;1.30;1.30;;;;;;;2.10;69.08;99938.72;4456901;32;33079;-71
2022/12/21 01:36:23;;;;;;;2.60;2.45;;;;;;;2.05;69.01;99935.13;4470772;32;33974;-71
2022/12/21 01:38:51;;;;;;;0.98;0.98;;;;;;;2.01;68.82;99929.00;4456766;32;35873;-71
2022/12/21 01:41:22;;;;;;;2.03;1.92;;;;;;;1.90;69.30;99920.06;4470708;32;35053;-71
2022/12/21 01:43:59;;;;;;;2.65;2.45;;;;;;;1.86;69.97;99918.22;4471011;32;33645;-71
2022/12/21 01:46:47;;;;;;;2.08;1.98;;;;;;;2.18;67.85;99915.84;4470635;32;33923;-71
2022/12/21 01:49:24;;;;;;;1.90;1.80;;;;;;;1.97;69.00;99926.28;4456792;32;35220;-71
2022/12/21 01:52:05;;;;;;;1.10;1.10;;;;;;;2.27;68.50;99911.00;4470824;32;34544;-71
2022/12/21 01:54:43;;;;;;;0.88;0.88;;;;;;;1.77;69.64;99915.34;4470657;32;33433;-71
2022/12/21 01:57:12;;;;;;;2.47;2.37;;;;;;;1.95;69.25;99913.38;4470586;32;33926;-71
2022/12/21 01:59:49;;;;;;;2.70;2.45;;;;;;;2.23;68.68;99904.00;4456703;32;35934;-71
2022/12/21 02:02:27;;;;;;;5.57;2.55;;;;;;;2.14;68.53;99907.16;4470592;32;34431;-71
2022/12/21 02:05:02;;;;;;;1.50;1.40;;;;;;;2.23;68.30;99897.16;4470638;32;33618;-70
2022/12/21 02:07:30;;;;;;;0.88;0.88;;;;;;;2.20;67.78;99885.94;4456643;32;33889;-71
2022/12/21 02:09:59;;;;;;;4.68;4.03;;;;;;;2.32;67.75;99893.16;4456750;32;35714;-70
2022/12/21 02:12:30;;;;;;;0.90;0.90;;;;;;;2.31;67.92;99887.13;4470448;32;35222;-71
2022/12/21 02:14:58;;;;;;;1.50;1.40;;;;;;;2.18;68.41;99891.00;4456768;32;34319;-71
2022/12/21 02:17:35;;;;;;;2.17;2.08;;;;;;;2.41;67.51;99891.72;4470380;32;34203;-71
2022/12/21 02:20:33;;;;;;;2.47;2.28;;;;;;;2.26;68.58;99888.69;4470815;32;34788;-71
2022/12/21 02:23:07;;;;;;;8.93;5.07;;;;;;;2.22;68.89;99884.28;4462766;32;35145;-71
2022/12/21 02:26:13;;;;;;;0.95;0.95;;;;;;;2.24;68.69;99885.19;4469151;32;33589;-71
2022/12/21 02:29:08;;;;;;;2.53;2.42;;;;;;;2.19;68.27;99884.16;4470532;32;34758;-71
2022/12/21 02:31:43;;;;;;;1.35;1.25;;;;;;;2.11;69.16;99872.78;4470336;32;35114;-71
2022/12/21 02:34:21;;;;;;;0.80;0.80;;;;;;;2.19;69.38;99879.03;4456515;32;34430;-71
2022/12/21 02:37:14;;;;;;;1.60;1.58;;;;;;;2.50;67.96;99872.28;4456490;32;33464;-71
2022/12/21 02:40:18;;;;;;;2.35;2.05;;;;;;;1.95;69.51;99864.59;4470413;32;34620;-71
2022/12/21 02:45:59;;;;;;;0.62;0.62;;;;;;;2.07;68.61;99859.84;4458499;32;35228;-71
2022/12/21 02:48:44;;;;;;;1.98;1.87;;;;;;;1.84;69.77;99840.28;4470498;32;33803;-71
2022/12/21 02:51:18;;;;;;;1.52;1.48;;;;;;;1.78;69.97;99843.50;4456323;32;34725;-71
2022/12/21 02:53:47;;;;;;;3.75;2.15;;;;;;;1.55;70.62;99847.87;4456459;32;35849;-71
2022/12/21 02:56:17;;;;;;;1.65;1.55;;;;;;;1.78;70.49;99851.19;4456208;32;35289;-71
2022/12/21 02:58:46;;;;;;;1.80;1.70;;;;;;;1.43;70.73;99844.88;4456699;32;33417;-70
2022/12/21 03:01:17;;;;;;;1.23;1.23;;;;;;;1.50;71.19;99847.72;4470402;32;33851;-71
2022/12/21 03:04:00;;;;;;;2.45;2.25;;;;;;;1.40;70.86;99840.53;4470439;32;34961;-71
2022/12/21 03:06:51;;;;;;;5.22;3.85;;;;;;;1.74;70.37;99826.25;4470410;32;35226;-71
2022/12/21 03:09:45;;;;;;;0.90;0.90;;;;;;;1.48;70.28;99833.09;4470444;32;34248;-70
2022/12/21 03:12:30;;;;;;;2.90;2.28;;;;;;;1.68;69.64;99828.63;4456315;32;33960;-71
2022/12/21 03:15:18;;;;;;;0.70;0.70;;;;;;;1.80;68.77;99829.03;4470270;32;35039;-71
2022/12/21 03:17:55;;;;;;;2.67;2.42;;;;;;;1.67;68.52;99820.03;4469977;32;34455;-71
2022/12/21 03:20:48;;;;;;;1.75;1.65;;;;;;;1.87;68.82;99812.09;4455997;32;33543;-71
2022/12/21 03:23:24;;;;;;;1.92;1.83;;;;;;;1.76;68.82;99813.47;4469931;32;33960;-70
2022/12/21 03:26:01;;;;;;;0.90;0.90;;;;;;;1.72;68.81;99806.50;4455621;32;34927;-71
2022/12/21 03:28:32;;;;;;;1.65;1.55;;;;;;;1.92;68.16;99802.84;4455654;32;33827;-70
2022/12/21 03:31:05;;;;;;;8.40;1.70;;;;;;;1.63;67.79;99797.66;4456007;32;33393;-71
2022/12/21 03:33:39;;;;;;;1.15;1.15;;;;;;;1.37;69.98;99808.78;4455885;32;34594;-71
2022/12/21 03:36:15;;;;;;;2.05;1.95;;;;;;;1.37;69.47;99813.91;4457206;32;35994;-71
2022/12/21 03:38:49;;;;;;;;;;;;;;;1.59;69.81;99811.22;4475163;32;35121;-71
2022/12/21 03:41:24;;;;;;;1.10;1.08;;;;;;;1.77;68.56;99812.66;4461057;32;33493;-71
2022/12/21 03:43:53;;;;;;;3.03;2.75;;;;;;;2.00;68.05;99814.25;4474834;32;33972;-71
2022/12/21 03:46:28;;;;;;;1.95;1.85;;;;;;;1.55;68.65;99809.38;4460783;32;35111;-70
2022/12/21 03:49:09;;;;;;;1.00;1.00;;;;;;;1.78;67.81;99820.38;4474756;32;35238;-70
2022/12/21 03:51:48;;;;;;;1.75;1.65;;;;;;;1.87;67.78;99813.00;4474754;32;33618;-70
2022/12/21 03:54:40;;;;;;;1.33;1.27;;;;;;;2.00;67.80;99819.38;4460836;32;33868;-71
2022/12/21 03:57:09;;;;;;;1.23;1.23;;;;;;;1.97;67.48;99820.97;4474639;32;35011;-70
2022/12/21 03:59:41;;;;;;;4.72;3.33;;;;;;;1.88;67.46;99807.00;4460630;32;34251;-71
2022/12/21 04:02:12;;;;;;;0.70;0.70;;;;;;;1.93;67.05;99822.59;4460726;32;34139;-71
2022/12/21 04:04:57;;;;;;;5.62;2.45;;;;;;;2.00;67.40;99826.22;4474789;32;33920;-71
2022/12/21 04:07:26;;;;;;;7.68;5.45;;;;;;;1.74;67.60;99831.38;4460416;32;35075;-70
2022/12/21 04:09:59;;;;;;;3.37;3.08;;;;;;;1.88;66.77;99829.25;4447586;32;32766;-70
2022/12/21 04:12:37;;;;;;;0.75;0.75;;;;;;;1.97;66.99;99823.56;4474451;32;33477;-70
2022/12/21 04:15:11;;;;;;;7.82;2.08;;;;;;;2.21;65.43;99815.75;4474395;32;33962;-71
2022/12/21 04:17:41;;;;;;;1.92;1.83;;;;;;;1.80;66.27;99805.03;4460394;32;35833;-71
2022/12/21 04:20:19;;;;;;;1.15;1.15;;;;;;;1.91;66.96;99803.69;4460335;32;34550;-71
2022/12/21 04:28:22;;;;;;;5.45;5.15;;;;;;;2.14;64.68;99800.97;4474117;32;34969;-71
2022/12/21 04:31:10;;;;;;;5.18;1.12;;;;;;;2.24;65.25;99790.13;4473992;32;35257;-71
2022/12/21 04:33:38;;;;;;;1.30;1.17;;;;;;;2.31;64.34;99794.63;4474116;32;33697;-70
2022/12/21 04:38:53;;;;;;;1.48;1.40;;;;;;;2.49;63.38;99793.41;4462168;32;35046;-71
2022/12/21 04:41:22;;;;;;;1.60;1.55;;;;;;;2.33;63.94;99793.00;4473934;32;34483;-71
2022/12/21 04:43:50;;;;;;;0.70;0.70;;;;;;;2.19;64.79;99794.25;4473910;32;33053;-71
2022/12/21 04:46:18;;;;;;;0.60;0.60;;;;;;;1.95;64.80;99795.25;4460040;32;34015;-70
2022/12/21 04:48:47;;;;;;;2.60;2.50;;;;;;;1.87;64.98;99792.44;4456993;32;35099;-71
2022/12/21 04:51:17;;;;;;;0.98;0.98;;;;;;;2.14;64.23;99800.97;4471028;32;34370;-73
2022/12/21 04:53:46;;;;;;;0.70;0.70;;;;;;;2.13;64.22;99800.06;4471021;32;33506;-71
2022/12/21 04:56:15;;;;;;;1.50;1.40;;;;;;;2.33;64.24;99795.56;4457057;32;34316;-70
2022/12/21 04:58:44;;;;;;;1.52;1.52;;;;;;;2.05;64.35;99797.28;4470963;32;35821;-71
2022/12/21 05:01:15;;;;;;;2.15;2.03;;;;;;;2.35;63.54;99780.16;4470999;32;34422;-71
2022/12/21 05:03:43;;;;;;;0.70;0.70;;;;;;;1.79;64.83;99783.62;4466850;32;33607;-71
2022/12/21 05:06:13;;;;;;;0.82;0.82;;;;;;;2.25;63.52;99791.88;4456874;32;33737;-71
2022/12/21 05:08:42;;;;;;;0.70;0.70;;;;;;;2.08;63.28;99789.69;4455523;32;34617;-71
2022/12/21 05:11:19;;;;;;;2.08;1.98;;;;;;;2.06;63.83;99788.72;4470756;32;34486;-71
2022/12/21 05:13:48;;;;;;;1.05;1.05;;;;;;;2.15;63.48;99787.28;4454417;32;33362;-71
2022/12/21 05:16:18;;;;;;;0.80;0.80;;;;;;;2.20;62.95;99789.16;4458305;32;34662;-70
2022/12/21 05:18:50;;;;;;;1.37;1.33;;;;;;;2.31;62.97;99789.47;4470801;32;35798;-70
2022/12/21 05:21:18;;;;;;;3.03;2.37;;;;;;;2.30;62.47;99784.31;4470288;32;33759;-70
2022/12/21 05:23:46;;;;;;;0.70;0.70;;;;;;;2.45;62.76;99774.47;4470705;32;33635;-71
2022/12/21 05:26:14;;;;;;;1.73;1.62;;;;;;;2.14;63.44;99775.28;4470179;32;33966;-70
2022/12/21 05:28:44;;;;;;;1.62;1.52;;;;;;;1.98;64.30;99767.09;4456647;32;35488;-70
2022/12/21 05:31:13;;;;;;;1.42;1.33;;;;;;;2.14;64.10;99775.28;4456350;32;34477;-70
2022/12/21 05:33:42;;;;;;;3.42;3.10;;;;;;;2.43;63.03;99761.56;4470608;32;33449;-71
2022/12/21 05:36:12;;;;;;;0.70;0.70;;;;;;;2.26;64.05;99770.50;4456175;32;33463;-71
2022/12/21 05:38:40;;;;;;;2.85;2.65;;;;;;;1.84;65.30;99770.94;4456509;32;34241;-69
2022/12/21 05:41:10;;;;;;;6.30;5.85;;;;;;;2.19;64.59;99778.84;4470382;32;34590;-69
2022/12/21 05:43:39;;;;;;;21.33;4.20;;;;;;;1.99;65.08;99773.97;4470664;32;33364;-71
2022/12/21 05:46:09;;;;;;;3.75;2.50;;;;;;;2.16;64.57;99778.75;4470348;32;34002;-71
2022/12/21 05:48:38;;;;;;;2.28;2.17;;;;;;;1.94;65.70;99780.69;4456472;32;34727;-71
2022/12/21 05:51:11;;;;;;;1.00;1.00;;;;;;;1.94;66.14;99772.09;4456383;32;34368;-72
2022/12/21 05:53:41;;;;;;;1.40;1.40;;;;;;;1.96;66.05;99767.88;4456728;32;33428;-69
2022/12/21 05:56:09;;;;;;;1.08;1.08;;;;;;;1.91;66.17;99767.75;4470202;32;34703;-70
2022/12/21 05:58:37;;;;;;;0.93;0.93;;;;;;;1.82;67.47;99759.75;4456321;32;34549;-69
2022/12/21 06:01:07;;;;;;;1.90;1.80;;;;;;;1.88;66.90;99762.50;4456385;32;33438;-69
2022/12/21 06:03:36;;;;;;;1.73;1.65;;;;;;;1.72;67.54;99761.16;4456754;32;33428;-69
2022/12/21 06:06:07;;;;;;;0.95;0.95;;;;;;;1.54;67.95;99764.00;4470804;32;34634;-69
2022/12/21 06:08:37;;;;;;;1.85;1.75;;;;;;;1.96;67.39;99763.63;4470427;32;35990;-70
2022/12/21 06:11:07;;;;;;;3.03;2.83;;;;;;;2.06;66.60;99763.03;4470433;32;34857;-71
2022/12/21 06:13:35;;;;;;;1.37;1.33;;;;;;;2.15;66.45;99761.59;4432621;32;32573;-70
2022/12/21 06:16:23;;;;;;;1.62;1.52;;;;;;;2.16;65.98;99768.50;4454977;32;34024;-70
2022/12/21 06:18:52;;;;;;;2.37;1.50;;;;;;;2.03;67.11;99760.41;4452568;32;35025;-70
2022/12/21 06:21:21;;;;;;;1.40;1.30;;;;;;;2.23;66.50;99766.13;4470537;32;34548;-69
2022/12/21 06:23:49;;;;;;;3.15;2.58;;;;;;;2.00;66.48;99768.00;4456331;32;34364;-70
2022/12/21 06:26:18;;;;;;;0.90;0.90;;;;;;;1.56;68.40;99764.94;4469995;32;34768;-69
2022/12/21 06:28:48;;;;;;;1.42;1.33;;;;;;;1.91;67.33;99767.75;4459728;32;35058;-70
2022/12/21 06:31:17;;;;;;;4.00;3.70;;;;;;;2.08;67.02;99786.22;4440851;32;34642;-71
2022/12/21 06:33:46;;;;;;;2.70;2.50;;;;;;;2.01;67.32;99774.00;4454665;32;33420;-70
2022/12/21 06:36:14;;;;;;;1.12;1.12;;;;;;;1.97;66.45;99772.19;4453367;32;33752;-69
2022/12/21 06:38:42;;;;;;;2.83;2.62;;;;;;;2.01;65.91;99769.78;4454770;32;35750;-69
2022/12/21 06:41:13;;;;;;;2.75;2.33;;;;;;;2.01;67.05;99756.94;4453475;32;34425;-70
2022/12/21 06:43:42;;;;;;;0.98;0.98;;;;;;;1.99;66.86;99765.41;4454598;32;33240;-71
2022/12/21 06:46:13;;;;;;;1.15;1.12;;;;;;;2.09;65.50;99758.00;4454586;32;34622;-70
2022/12/21 06:48:41;;;;;;;2.08;1.95;;;;;;;2.21;64.44;99757.50;4455912;32;34271;-70
2022/12/21 06:51:12;;;;;;;1.45;1.40;;;;;;;1.80;65.82;99744.31;4456661;32;34417;-70
2022/12/21 06:53:42;;;;;;;2.62;2.45;;;;;;;1.54;66.81;99751.19;4470546;32;33453;-71
2022/12/21 06:56:12;;;;;;;1.73;1.60;;;;;;;1.72;66.71;99755.16;4470284;32;33013;-72
2022/12/21 06:58:49;;;;;;;1.10;1.10;;;;;;;2.11;66.14;99739.22;4470153;32;35021;-72
2022/12/21 07:01:29;;;;;;;0.90;0.90;;;;;;;1.96;66.26;99745.66;4470275;32;35299;-70
2022/12/21 07:03:59;;;;;;;2.03;1.92;;;;;;;2.07;65.71;99751.97;4456190;32;33647;-71
2022/12/21 07:06:29;;;;;;;1.25;1.25;;;;;;;2.01;66.19;99751.78;4470410;32;33803;-70
2022/12/21 07:08:58;;;;;;;17.65;3.08;;;;;;;2.28;65.59;99748.28;4455966;32;35851;-71
2022/12/21 07:11:29;;;;;;;2.05;1.95;;;;;;;2.09;64.97;99747.75;4455254;32;34513;-70
2022/12/21 07:13:57;;;;;;;0.90;0.90;;;;;;;2.07;65.39;99745.97;4456330;32;34175;-71
2022/12/21 07:16:25;;;;;;;1.12;1.12;;;;;;;2.20;65.52;99750.63;4469932;32;33475;-71
2022/12/21 07:18:53;;;;;;;1.17;1.17;;;;;;;1.85;65.97;99758.16;4469968;32;35972;-70
2022/12/21 07:21:22;;;;;;;2.03;1.90;;;;;;;2.07;66.00;99759.66;4469976;32;34296;-71
2022/12/21 07:23:50;;;;;;;2.58;1.55;;;;;;;2.06;65.67;99752.78;4469920;32;34345;-70
2022/12/21 07:26:23;;;;;;;1.67;1.58;;;;;;;2.16;65.39;99753.06;4469658;32;33853;-70
2022/12/21 07:28:53;;;;;;;0.70;0.70;;;;;;;2.16;65.14;99751.38;4455875;32;35300;-71
2022/12/21 07:31:25;;;;;;;1.25;1.25;;;;;;;2.29;64.20;99750.03;4469906;32;34390;-70
2022/12/21 07:33:53;;;;;;;1.00;1.00;;;;;;;2.30;64.14;99756.91;4469806;32;34274;-69
2022/12/21 07:36:22;;;;;;;1.42;1.30;;;;;;;2.22;64.29;99749.00;4456057;32;34543;-71
2022/12/21 07:38:50;;;;;;;3.30;3.05;;;;;;;2.34;64.25;99745.88;4469741;32;35789;-70
2022/12/21 07:41:18;;;;;;;0.70;0.70;;;;;;;2.39;63.89;99748.59;4469714;32;35053;-70
2022/12/21 07:43:46;;;;;;;10.70;2.75;;;;;;;2.64;62.24;99755.28;4469580;32;33305;-72
2022/12/21 07:46:16;;;;;;;0.80;0.80;;;;;;;2.50;63.79;99748.91;4469941;32;34598;-70
2022/12/21 07:48:45;;;;;;;1.15;1.15;;;;;;;2.09;64.14;99747.75;4469483;32;35937;-70
2022/12/21 07:51:13;;;;;;;1.00;1.00;;;;;;;1.97;65.09;99747.38;4469557;32;34460;-69
2022/12/21 07:53:41;;;;;;;1.23;1.23;;;;;;;2.25;63.77;99737.91;4469527;32;33519;-70
2022/12/21 07:56:13;;;;;;;1.33;1.23;;;;;;;2.49;63.46;99747.16;4469448;32;33794;-70
2022/12/21 07:58:41;;;;;;;1.90;1.80;;;;;;;2.43;63.31;99743.56;4455489;32;34905;-70
2022/12/21 08:01:15;;;;;;;2.00;1.90;;;;;;;2.49;63.43;99748.03;4469294;32;35305;-70
2022/12/21 08:03:47;;;;;;;0.80;0.80;;;;;;;2.83;62.27;99754.97;4469759;32;34224;-70
2022/12/21 08:06:17;;;;;;;1.52;1.45;;;;;;;2.28;63.30;99743.16;4469406;32;34000;-70
2022/12/21 08:08:45;;;;;;;3.05;1.95;;;;;;;2.42;63.52;99752.13;4469219;32;35052;-70
2022/12/21 08:11:18;;;;;;;1.52;1.45;;;;;;;2.43;63.66;99748.72;4469558;32;34354;-70
2022/12/21 08:13:47;;;;;;;1.08;1.08;;;;;;;2.63;62.57;99745.88;4455361;32;33479;-70
2022/12/21 08:16:17;;;;;;;2.72;2.17;;;;;;;2.74;62.97;99741.87;4469088;32;33725;-70
2022/12/21 08:18:45;;;;;;;1.17;1.10;;;;;;;2.07;64.35;99739.12;4469229;32;35925;-70
2022/12/21 08:21:15;;;;;;;2.28;2.03;;;;;;;2.40;63.69;99735.81;4469014;32;34537;-70
2022/12/21 08:23:43;;;;;;;2.30;2.20;;;;;;;2.32;64.40;99739.84;4456335;32;33487;-70
2022/12/21 08:26:12;;;;;;;3.53;2.97;;;;;;;2.16;64.52;99740.22;4471128;32;34738;-71
2022/12/21 08:28:41;;;;;;;2.40;2.20;;;;;;;2.80;63.09;99739.44;4471201;32;35140;-70
2022/12/21 08:31:13;;;;;;;0.82;0.82;;;;;;;2.58;63.00;99740.59;4471163;32;34505;-71
2022/12/21 08:33:42;;;;;;;1.92;1.77;;;;;;;2.79;62.07;99732.59;4471260;32;34218;-71
2022/12/21 08:36:12;;;;;;;3.17;2.97;;;;;;;2.65;63.39;99741.63;4471268;32;33874;-72
2022/12/21 08:38:40;;;;;;;3.47;3.05;;;;;;;2.88;62.01;99736.22;4471097;32;34873;-70
2022/12/21 08:41:28;;;;;;;0.77;0.77;;;;;;;2.85;62.97;99737.00;4470991;32;34435;-72
2022/12/21 08:43:56;;;;;;;1.25;1.23;;;;;;;2.71;63.86;99736.63;4471185;32;33753;-70
2022/12/21 08:46:24;;;;;;;1.58;1.48;;;;;;;3.07;61.67;99733.31;4471266;32;34816;-70
2022/12/21 08:48:53;;;;;;;4.18;3.75;;;;;;;2.53;63.79;99733.56;4471131;32;35026;-71
2022/12/21 08:51:21;;;;;;;2.62;2.42;;;;;;;2.76;63.20;99732.50;4457048;32;35297;-70
2022/12/21 08:53:53;;;;;;;1.17;1.15;;;;;;;2.43;64.14;99725.56;4471071;32;33647;-71
2022/12/21 08:56:22;;;;;;;0.88;0.88;;;;;;;3.05;62.14;99729.81;4457339;32;33823;-72
2022/12/21 08:58:50;;;;;;;1.40;1.40;;;;;;;3.16;61.80;99728.41;4470896;32;35933;-71
2022/12/21 09:01:20;;;;;;;3.40;3.20;;;;;;;3.37;60.73;99732.31;4457298;32;35202;-72
2022/12/21 09:03:49;;;;;;;1.73;1.62;;;;;;;3.18;61.23;99729.31;4457155;32;32776;-72
2022/12/21 09:06:17;;;;;;;2.45;2.35;;;;;;;3.23;61.89;99735.44;4457017;32;34756;-73
2022/12/21 09:08:45;;;;;;;7.93;4.75;;;;;;;2.89;62.77;99737.97;4471205;32;35914;-71
2022/12/21 09:11:16;;;;;;;1.80;1.55;;;;;;;3.19;61.55;99736.19;4470725;32;34524;-71
2022/12/21 09:13:45;;;;;;;0.62;0.62;;;;;;;3.32;61.78;99733.91;4470934;32;33432;-71
2022/12/21 09:16:18;;;;;;;1.67;1.58;;;;;;;3.18;61.71;99737.03;4470917;32;33936;-70
2022/12/21 09:18:47;;;;;;;1.83;1.73;;;;;;;3.11;61.64;99729.13;4470944;32;35159;-71
2022/12/21 09:21:16;;;;;;;1.73;1.62;;;;;;;3.15;61.81;99726.63;4456897;32;35328;-71
2022/12/21 09:23:44;;;;;;;1.50;1.45;;;;;;;3.30;61.25;99725.28;4456970;32;33393;-72
2022/12/21 09:26:14;;;;;;;0.90;0.90;;;;;;;2.92;62.59;99714.91;4447098;32;304330;-70
2022/12/21 09:28:42;;;;;;;1.33;1.33;;;;;;;3.16;61.64;99710.38;4456693;32;34405;-71
2022/12/21 09:31:19;;;;;;;1.23;1.23;;;;;;;3.66;60.12;99696.13;4470721;32;34419;-71
2022/12/21 09:33:54;;;;;;;2.28;1.12;;;;;;;3.41;61.10;99696.41;4470491;32;34456;-70
2022/12/21 09:36:23;;;;;;;3.10;1.95;;;;;;;3.39;60.84;99692.06;4470668;32;34899;-71
2022/12/21 09:38:52;;;;;;;1.05;1.05;;;;;;;3.24;61.69;99692.56;4470793;32;35130;-71
2022/12/21 09:41:33;;;;;;;1.60;1.50;;;;;;;3.51;61.04;99696.59;4470798;32;34399;-70
2022/12/21 09:44:13;;;;;;;1.27;1.17;;;;;;;2.94;62.45;99690.09;4470904;32;33304;-69
2022/12/21 09:46:42;;;;;;;5.30;3.80;;;;;;;3.02;62.34;99686.03;4470762;32;33733;-70
2022/12/21 09:49:19;;;;;;;3.25;2.10;;;;;;;3.38;60.93;99677.44;4456755;32;35845;-71
2022/12/21 09:51:53;;;;;;;0.95;0.95;;;;;;;3.16;61.18;99684.66;4470884;32;34508;-71
2022/12/21 09:54:38;;;;;;;1.80;1.70;;;;;;;3.42;61.22;99679.25;4456803;32;34388;-70
2022/12/21 09:57:09;;;;;;;0.73;0.73;;;;;;;3.34;61.15;99680.78;4456641;32;34103;-70
2022/12/21 09:59:37;;;;;;;1.65;1.42;;;;;;;3.43;60.23;99670.69;4456719;32;35834;-71
2022/12/21 10:02:48;;;;;;;2.67;2.45;;;;;;;3.26;61.13;99680.59;4456419;32;34012;-70
2022/12/21 10:06:07;;;;;;;1.37;1.27;;;;;;;3.19;61.30;99668.41;4452855;32;33290;-70
2022/12/21 10:08:36;;;;;;;1.20;1.20;;;;;;;3.23;61.71;99671.09;4406691;32;34491;-69
2022/12/21 10:11:41;;;;;;;1.62;1.58;;;;;;;3.28;61.36;99675.47;4445157;32;33522;-72
2022/12/21 10:14:33;;;;;;;0.80;0.80;;;;;;;3.31;61.78;99670.41;4444160;32;34476;-72
2022/12/21 10:17:16;;;;;;;3.10;2.90;;;;;;;3.63;61.29;99672.84;4470525;32;33454;-72
2022/12/21 10:20:26;;;;;;;3.37;2.33;;;;;;;3.46;61.59;99672.47;4458828;32;34628;-72
2022/12/21 10:22:58;;;;;;;1.87;1.73;;;;;;;3.63;61.40;99672.84;4456289;32;33262;-72
2022/12/21 10:25:37;;;;;;;2.08;1.98;;;;;;;3.41;61.19;99674.94;4469981;32;34000;-71
2022/12/21 10:28:47;;;;;;;2.92;2.78;;;;;;;3.72;60.84;99665.34;4470391;32;33575;-71
2022/12/21 10:31:27;;;;;;;1.60;1.50;;;;;;;3.64;60.46;99654.00;4395312;32;33439;-72
2022/12/21 10:33:58;;;;;;;3.70;2.12;;;;;;;3.38;60.75;99650.00;4470384;32;35019;-72
2022/12/21 10:36:34;;;;;;;0.73;0.73;;;;;;;3.16;61.96;99643.47;4443505;32;33749;-74
2022/12/21 10:39:04;;;;;;;3.35;3.08;;;;;;;3.39;61.01;99644.03;4443539;32;32475;-72
2022/12/21 10:41:39;;;;;;;2.85;2.65;;;;;;;3.56;60.93;99646.97;4443726;32;33424;-71
2022/12/21 10:44:10;;;;;;;4.32;2.75;;;;;;;3.23;62.49;99636.78;4456483;32;35129;-71
2022/12/21 10:46:38;;;;;;;2.10;2.00;;;;;;;3.66;60.81;99632.59;4469348;32;34580;-70
2022/12/21 10:49:21;;;;;;;1.87;1.80;;;;;;;3.32;61.71;99633.53;4470372;32;34140;-70
2022/12/21 10:51:49;;;;;;;1.50;1.40;;;;;;;3.57;61.03;99630.69;4456238;32;34622;-71
2022/12/21 10:54:26;;;;;;;1.17;1.17;;;;;;;3.67;60.88;99623.16;4456350;32;35191;-71
2022/12/21 10:56:58;;;;;;;1.12;1.12;;;;;;;3.45;61.59;99617.53;4443683;32;34674;-70
2022/12/21 10:59:39;;;;;;;0.70;0.70;;;;;;;4.09;60.31;99622.31;4456007;32;31285;-70
2022/12/21 11:02:32;;;;;;;1.42;1.33;;;;;;;4.06;60.08;99614.50;4443510;32;34706;-71
2022/12/21 11:05:01;;;;;;;1.40;1.33;;;;;;;3.44;61.56;99617.50;4456220;32;34935;-71
2022/12/21 11:07:30;;;;;;;3.08;2.83;;;;;;;3.16;62.66;99617.75;4470106;32;34406;-70
2022/12/21 11:10:28;;;;;;;2.92;1.60;;;;;;;3.83;60.50;99609.78;4470081;32;33431;-70
2022/12/21 11:13:17;;;;;;;3.28;3.08;;;;;;;3.55;60.88;99604.03;4458397;32;34799;-71
2022/12/21 11:15:59;;;;;;;0.88;0.88;;;;;;;3.91;59.92;99597.91;4470040;32;35045;-70
2022/12/21 11:18:44;;;;;;;2.45;2.35;;;;;;;3.17;61.96;99604.03;4469943;32;34589;-72
2022/12/21 11:21:43;;;;;;;4.43;4.05;;;;;;;3.57;61.61;99597.22;4441772;32;33609;-71
2022/12/21 11:24:31;;;;;;;1.55;1.45;;;;;;;3.82;60.12;99595.16;4454209;32;34797;-71
2022/12/21 11:27:02;;;;;;;3.25;2.85;;;;;;;3.91;60.16;99602.19;4440244;32;35127;-71
2022/12/21 11:29:48;;;;;;;5.03;4.18;;;;;;;3.73;60.36;99593.25;4440252;32;34410;-72
2022/12/21 11:32:17;;;;;;;2.30;1.90;;;;;;;3.41;60.53;99597.72;4452972;32;31913;-72
2022/12/21 11:34:55;;;;;;;4.37;2.55;;;;;;;3.44;61.09;99600.34;4452963;32;33906;-70
2022/12/21 11:37:31;;;;;;;0.82;0.82;;;;;;;3.50;60.71;99595.34;4452973;32;35068;-71
2022/12/21 11:40:10;;;;;;;1.62;1.48;;;;;;;3.57;60.47;99592.06;4454005;32;35309;-70
2022/12/21 11:42:59;;;;;;;1.45;1.40;;;;;;;3.71;61.21;99583.78;4454013;32;34154;-71
2022/12/21 11:45:59;;;;;;;3.58;3.28;;;;;;;3.73;61.16;99576.94;4455144;32;33152;-71
2022/12/21 11:49:22;;;;;;;3.33;2.80;;;;;;;3.50;61.94;99579.03;4469609;32;34658;-71
2022/12/21 11:51:54;;;;;;;0.70;0.70;;;;;;;3.36;61.58;99579.59;4453722;32;33983;-71
2022/12/21 11:55:03;;;;;;;1.87;1.77;;;;;;;3.53;61.43;99574.81;4453756;32;34365;-71
2022/12/21 11:57:44;;;;;;;2.65;2.45;;;;;;;3.52;61.60;99573.06;4456177;32;33801;-71
2022/12/21 12:00:21;;;;;;;1.37;1.30;;;;;;;3.22;63.05;99565.56;4471140;32;35531;-71
2022/12/21 12:03:38;;;;;;;1.65;1.55;;;;;;;3.79;60.97;99556.44;4447000;32;32900;-71
2022/12/21 12:06:37;;;;;;;2.03;1.92;;;;;;;3.70;60.97;99556.28;4457222;32;33635;-71
2022/12/21 12:09:19;;;;;;;5.28;3.08;;;;;;;3.63;60.92;99556.97;4471447;32;34031;-71
2022/12/21 12:12:24;;;;;;;2.50;2.37;;;;;;;3.60;61.17;99553.50;4457373;32;35039;-71
2022/12/21 12:15:00;;;;;;;1.45;1.40;;;;;;;3.47;61.93;99548.94;4457404;32;35157;-71
2022/12/21 12:17:48;;;;;;;1.52;1.40;;;;;;;3.61;61.49;99560.38;4444727;32;33543;-71
2022/12/21 12:20:36;;;;;;;2.83;2.25;;;;;;;3.19;62.42;99561.22;4471298;32;34789;-71
2022/12/21 12:23:14;;;;;;;1.27;1.27;;;;;;;3.06;63.48;99560.91;4471312;32;35126;-71
2022/12/21 12:25:46;;;;;;;1.55;1.45;;;;;;;3.48;62.44;99558.41;4457351;32;34502;-71
2022/12/21 12:28:30;;;;;;;1.90;1.80;;;;;;;3.73;62.06;99553.75;4471314;32;33457;-71